sensor_id;sensor_type;location;lat;lon;timestamp;P1;durP1;ratioP1;P2;durP2;ratioP2
8909;SDS011;4490;49.072;8.804;2024-03-02T00:02:42;0.70;;;0.70;;
8909;SDS011;4490;49.072;8.804;2024-03-02T00:05:13;0.90;;;0.90;;
8909;SDS011;4490;49.072;8.804;2024-03-02T00:07:44;0.73;;;0.73;;
8909;SDS011;4490;49.072;8.804;2024-03-02T00:10:14;0.80;;;0.80;;
8909;SDS011;4490;49.072;8.804;2024-03-02T00:12:44;0.70;;;0.70;;
8909;SDS011;4490;49.072;8.804;2024-03-02T00:15:58;0.70;;;0.70;;
8909;SDS011;4490;49.072;8.804;2024-03-02T00:18:04;0.90;;;0.90;;
8909;SDS011;4490;49.072;8.804;2024-03-02T00:20:33;0.60;;;0.60;;
8909;SDS011;4490;49.072;8.804;2024-03-02T00:23:05;0.70;;;0.70;;
8909;SDS011;4490;49.072;8.804;2024-03-02T00:25:38;0.70;;;0.70;;
8909;SDS011;4490;49.072;8.804;2024-03-02T00:28:19;0.90;;;0.90;;
8909;SDS011;4490;49.072;8.804;2024-03-02T00:33:38;0.80;;;0.80;;
8909;SDS011;4490;49.072;8.804;2024-03-02T00:36:07;0.90;;;0.90;;
8909;SDS011;4490;49.072;8.804;2024-03-02T00:38:33;0.90;;;0.90;;
8909;SDS011;4490;49.072;8.804;2024-03-02T00:41:07;0.70;;;0.70;;
8909;SDS011;4490;49.072;8.804;2024-03-02T00:43:45;0.70;;;0.70;;
8909;SDS011;4490;49.072;8.804;2024-03-02T00:46:27;0.87;;;0.87;;
8909;SDS011;4490;49.072;8.804;2024-03-02T00:48:56;0.70;;;0.70;;
8909;SDS011;4490;49.072;8.804;2024-03-02T00:51:24;0.90;;;0.90;;
8909;SDS011;4490;49.072;8.804;2024-03-02T00:53:51;0.80;;;0.80;;
8909;SDS011;4490;49.072;8.804;2024-03-02T00:56:20;0.73;;;0.73;;
8909;SDS011;4490;49.072;8.804;2024-03-02T00:58:46;0.70;;;0.70;;
8909;SDS011;4490;49.072;8.804;2024-03-02T01:01:12;0.80;;;0.80;;
8909;SDS011;4490;49.072;8.804;2024-03-02T01:03:37;0.70;;;0.70;;
8909;SDS011;4490;49.072;8.804;2024-03-02T01:06:03;0.63;;;0.63;;
8909;SDS011;4490;49.072;8.804;2024-03-02T01:08:30;0.70;;;0.70;;
8909;SDS011;4490;49.072;8.804;2024-03-02T01:10:55;0.70;;;0.70;;
8909;SDS011;4490;49.072;8.804;2024-03-02T01:13:24;0.70;;;0.70;;
8909;SDS011;4490;49.072;8.804;2024-03-02T01:15:50;0.83;;;0.83;;
8909;SDS011;4490;49.072;8.804;2024-03-02T01:18:15;0.67;;;0.67;;
8909;SDS011;4490;49.072;8.804;2024-03-02T01:20:41;0.70;;;0.70;;
8909;SDS011;4490;49.072;8.804;2024-03-02T01:23:07;0.70;;;0.70;;
8909;SDS011;4490;49.072;8.804;2024-03-02T01:25:32;0.60;;;0.60;;
8909;SDS011;4490;49.072;8.804;2024-03-02T01:27:58;0.90;;;0.90;;
8909;SDS011;4490;49.072;8.804;2024-03-02T01:30:23;0.73;;;0.73;;
8909;SDS011;4490;49.072;8.804;2024-03-02T01:32:49;0.70;;;0.70;;
8909;SDS011;4490;49.072;8.804;2024-03-02T01:35:14;0.80;;;0.80;;
8909;SDS011;4490;49.072;8.804;2024-03-02T01:37:40;0.90;;;0.90;;
8909;SDS011;4490;49.072;8.804;2024-03-02T01:40:06;0.80;;;0.80;;
8909;SDS011;4490;49.072;8.804;2024-03-02T01:42:37;0.60;;;0.60;;
8909;SDS011;4490;49.072;8.804;2024-03-02T01:45:07;0.60;;;0.60;;
8909;SDS011;4490;49.072;8.804;2024-03-02T01:47:34;0.60;;;0.60;;
8909;SDS011;4490;49.072;8.804;2024-03-02T01:50:00;0.70;;;0.70;;
8909;SDS011;4490;49.072;8.804;2024-03-02T01:52:26;0.70;;;0.70;;
8909;SDS011;4490;49.072;8.804;2024-03-02T01:54:52;0.90;;;0.90;;
8909;SDS011;4490;49.072;8.804;2024-03-02T01:57:18;0.80;;;0.80;;
8909;SDS011;4490;49.072;8.804;2024-03-02T01:59:44;0.80;;;0.80;;
8909;SDS011;4490;49.072;8.804;2024-03-02T02:02:12;0.87;;;0.87;;
8909;SDS011;4490;49.072;8.804;2024-03-02T02:04:38;0.80;;;0.80;;
8909;SDS011;4490;49.072;8.804;2024-03-02T02:07:04;0.90;;;0.90;;
8909;SDS011;4490;49.072;8.804;2024-03-02T02:09:30;0.73;;;0.73;;
8909;SDS011;4490;49.072;8.804;2024-03-02T02:11:55;0.70;;;0.70;;
8909;SDS011;4490;49.072;8.804;2024-03-02T02:14:21;0.87;;;0.87;;
8909;SDS011;4490;49.072;8.804;2024-03-02T02:16:46;0.80;;;0.80;;
8909;SDS011;4490;49.072;8.804;2024-03-02T02:19:12;0.80;;;0.80;;
8909;SDS011;4490;49.072;8.804;2024-03-02T02:21:38;0.83;;;0.83;;
8909;SDS011;4490;49.072;8.804;2024-03-02T02:24:06;0.80;;;0.80;;
8909;SDS011;4490;49.072;8.804;2024-03-02T02:26:32;0.80;;;0.80;;
8909;SDS011;4490;49.072;8.804;2024-03-02T02:28:58;0.70;;;0.70;;
8909;SDS011;4490;49.072;8.804;2024-03-02T02:31:23;0.70;;;0.70;;
8909;SDS011;4490;49.072;8.804;2024-03-02T02:33:49;0.60;;;0.60;;
8909;SDS011;4490;49.072;8.804;2024-03-02T02:36:14;0.70;;;0.70;;
8909;SDS011;4490;49.072;8.804;2024-03-02T02:38:42;0.80;;;0.80;;
8909;SDS011;4490;49.072;8.804;2024-03-02T02:41:11;0.70;;;0.70;;
8909;SDS011;4490;49.072;8.804;2024-03-02T02:43:37;0.70;;;0.70;;
8909;SDS011;4490;49.072;8.804;2024-03-02T02:46:04;0.80;;;0.80;;
8909;SDS011;4490;49.072;8.804;2024-03-02T02:48:30;0.80;;;0.80;;
8909;SDS011;4490;49.072;8.804;2024-03-02T02:50:55;0.87;;;0.87;;
8909;SDS011;4490;49.072;8.804;2024-03-02T02:53:21;0.70;;;0.70;;
8909;SDS011;4490;49.072;8.804;2024-03-02T02:55:47;0.67;;;0.67;;
8909;SDS011;4490;49.072;8.804;2024-03-02T02:58:12;0.70;;;0.70;;
8909;SDS011;4490;49.072;8.804;2024-03-02T03:00:38;0.77;;;0.77;;
8909;SDS011;4490;49.072;8.804;2024-03-02T03:03:04;0.80;;;0.80;;
8909;SDS011;4490;49.072;8.804;2024-03-02T03:05:30;0.80;;;0.80;;
8909;SDS011;4490;49.072;8.804;2024-03-02T03:07:56;0.70;;;0.70;;
8909;SDS011;4490;49.072;8.804;2024-03-02T03:10:21;0.80;;;0.80;;
8909;SDS011;4490;49.072;8.804;2024-03-02T03:12:48;0.90;;;0.90;;
8909;SDS011;4490;49.072;8.804;2024-03-02T03:15:14;0.80;;;0.80;;
8909;SDS011;4490;49.072;8.804;2024-03-02T03:17:41;0.70;;;0.70;;
8909;SDS011;4490;49.072;8.804;2024-03-02T03:20:07;0.80;;;0.80;;
8909;SDS011;4490;49.072;8.804;2024-03-02T03:22:36;0.70;;;0.70;;
8909;SDS011;4490;49.072;8.804;2024-03-02T03:25:02;0.83;;;0.83;;
8909;SDS011;4490;49.072;8.804;2024-03-02T03:27:28;0.80;;;0.80;;
8909;SDS011;4490;49.072;8.804;2024-03-02T03:29:54;0.70;;;0.70;;
8909;SDS011;4490;49.072;8.804;2024-03-02T03:32:20;0.70;;;0.70;;
8909;SDS011;4490;49.072;8.804;2024-03-02T03:34:45;0.77;;;0.77;;
8909;SDS011;4490;49.072;8.804;2024-03-02T03:37:13;0.80;;;0.80;;
8909;SDS011;4490;49.072;8.804;2024-03-02T03:39:38;0.70;;;0.70;;
8909;SDS011;4490;49.072;8.804;2024-03-02T03:42:04;0.63;;;0.63;;
8909;SDS011;4490;49.072;8.804;2024-03-02T03:44:30;0.77;;;0.77;;
8909;SDS011;4490;49.072;8.804;2024-03-02T03:46:55;0.70;;;0.70;;
8909;SDS011;4490;49.072;8.804;2024-03-02T03:49:21;0.67;;;0.67;;
8909;SDS011;4490;49.072;8.804;2024-03-02T03:51:47;0.80;;;0.80;;
8909;SDS011;4490;49.072;8.804;2024-03-02T03:54:12;0.70;;;0.70;;
8909;SDS011;4490;49.072;8.804;2024-03-02T03:56:38;0.70;;;0.70;;
8909;SDS011;4490;49.072;8.804;2024-03-02T03:59:04;0.80;;;0.80;;
8909;SDS011;4490;49.072;8.804;2024-03-02T04:01:30;0.80;;;0.80;;
8909;SDS011;4490;49.072;8.804;2024-03-02T04:03:56;0.70;;;0.70;;
8909;SDS011;4490;49.072;8.804;2024-03-02T04:06:22;0.70;;;0.70;;
8909;SDS011;4490;49.072;8.804;2024-03-02T04:08:48;0.80;;;0.80;;
8909;SDS011;4490;49.072;8.804;2024-03-02T04:11:14;0.73;;;0.73;;
8909;SDS011;4490;49.072;8.804;2024-03-02T04:13:39;0.97;;;0.97;;
8909;SDS011;4490;49.072;8.804;2024-03-02T04:16:05;0.60;;;0.60;;
8909;SDS011;4490;49.072;8.804;2024-03-02T04:18:31;0.87;;;0.87;;
8909;SDS011;4490;49.072;8.804;2024-03-02T04:21:00;0.83;;;0.83;;
8909;SDS011;4490;49.072;8.804;2024-03-02T04:23:28;0.60;;;0.60;;
8909;SDS011;4490;49.072;8.804;2024-03-02T04:25:54;0.80;;;0.80;;
8909;SDS011;4490;49.072;8.804;2024-03-02T04:28:19;0.70;;;0.70;;
8909;SDS011;4490;49.072;8.804;2024-03-02T04:30:45;0.80;;;0.80;;
8909;SDS011;4490;49.072;8.804;2024-03-02T04:33:11;0.93;;;0.93;;
8909;SDS011;4490;49.072;8.804;2024-03-02T04:35:36;0.87;;;0.87;;
8909;SDS011;4490;49.072;8.804;2024-03-02T04:38:02;0.90;;;0.90;;
8909;SDS011;4490;49.072;8.804;2024-03-02T04:40:28;0.73;;;0.73;;
8909;SDS011;4490;49.072;8.804;2024-03-02T04:42:54;0.80;;;0.80;;
8909;SDS011;4490;49.072;8.804;2024-03-02T04:45:19;0.80;;;0.80;;
8909;SDS011;4490;49.072;8.804;2024-03-02T04:47:45;0.60;;;0.60;;
8909;SDS011;4490;49.072;8.804;2024-03-02T04:50:11;0.77;;;0.77;;
8909;SDS011;4490;49.072;8.804;2024-03-02T04:52:36;0.70;;;0.70;;
8909;SDS011;4490;49.072;8.804;2024-03-02T04:55:02;0.90;;;0.90;;
8909;SDS011;4490;49.072;8.804;2024-03-02T04:57:36;0.80;;;0.80;;
8909;SDS011;4490;49.072;8.804;2024-03-02T05:00:01;0.80;;;0.80;;
8909;SDS011;4490;49.072;8.804;2024-03-02T05:02:31;0.70;;;0.70;;
8909;SDS011;4490;49.072;8.804;2024-03-02T05:04:57;0.90;;;0.90;;
8909;SDS011;4490;49.072;8.804;2024-03-02T05:07:23;0.70;;;0.70;;
8909;SDS011;4490;49.072;8.804;2024-03-02T05:09:48;0.80;;;0.80;;
8909;SDS011;4490;49.072;8.804;2024-03-02T05:12:14;0.70;;;0.70;;
8909;SDS011;4490;49.072;8.804;2024-03-02T05:14:58;0.80;;;0.80;;
8909;SDS011;4490;49.072;8.804;2024-03-02T05:17:23;0.80;;;0.80;;
8909;SDS011;4490;49.072;8.804;2024-03-02T05:19:49;0.70;;;0.70;;
8909;SDS011;4490;49.072;8.804;2024-03-02T05:22:14;0.80;;;0.80;;
8909;SDS011;4490;49.072;8.804;2024-03-02T05:24:40;0.80;;;0.80;;
8909;SDS011;4490;49.072;8.804;2024-03-02T05:27:06;0.70;;;0.70;;
8909;SDS011;4490;49.072;8.804;2024-03-02T05:29:32;0.80;;;0.80;;
8909;SDS011;4490;49.072;8.804;2024-03-02T05:31:58;0.80;;;0.80;;
8909;SDS011;4490;49.072;8.804;2024-03-02T05:34:23;0.90;;;0.90;;
8909;SDS011;4490;49.072;8.804;2024-03-02T05:36:49;0.80;;;0.80;;
8909;SDS011;4490;49.072;8.804;2024-03-02T05:39:14;0.80;;;0.80;;
8909;SDS011;4490;49.072;8.804;2024-03-02T05:41:40;0.80;;;0.80;;
8909;SDS011;4490;49.072;8.804;2024-03-02T05:44:06;0.80;;;0.80;;
8909;SDS011;4490;49.072;8.804;2024-03-02T05:46:32;0.70;;;0.70;;
8909;SDS011;4490;49.072;8.804;2024-03-02T05:48:58;0.60;;;0.60;;
8909;SDS011;4490;49.072;8.804;2024-03-02T05:51:24;0.90;;;0.90;;
8909;SDS011;4490;49.072;8.804;2024-03-02T05:53:50;0.60;;;0.60;;
8909;SDS011;4490;49.072;8.804;2024-03-02T05:56:16;0.90;;;0.90;;
8909;SDS011;4490;49.072;8.804;2024-03-02T05:58:41;0.80;;;0.80;;
8909;SDS011;4490;49.072;8.804;2024-03-02T06:01:26;0.90;;;0.90;;
8909;SDS011;4490;49.072;8.804;2024-03-02T06:03:56;0.67;;;0.67;;
8909;SDS011;4490;49.072;8.804;2024-03-02T06:06:23;0.70;;;0.70;;
8909;SDS011;4490;49.072;8.804;2024-03-02T06:08:49;0.80;;;0.80;;
8909;SDS011;4490;49.072;8.804;2024-03-02T06:11:15;1.00;;;1.00;;
8909;SDS011;4490;49.072;8.804;2024-03-02T06:13:40;0.80;;;0.80;;
8909;SDS011;4490;49.072;8.804;2024-03-02T06:16:06;0.80;;;0.80;;
8909;SDS011;4490;49.072;8.804;2024-03-02T06:18:33;0.73;;;0.73;;
8909;SDS011;4490;49.072;8.804;2024-03-02T06:20:59;0.90;;;0.90;;
8909;SDS011;4490;49.072;8.804;2024-03-02T06:23:26;0.70;;;0.70;;
8909;SDS011;4490;49.072;8.804;2024-03-02T06:25:52;0.70;;;0.70;;
8909;SDS011;4490;49.072;8.804;2024-03-02T06:28:17;0.90;;;0.90;;
8909;SDS011;4490;49.072;8.804;2024-03-02T06:30:43;0.80;;;0.80;;
8909;SDS011;4490;49.072;8.804;2024-03-02T06:33:10;0.90;;;0.90;;
8909;SDS011;4490;49.072;8.804;2024-03-02T06:35:35;0.60;;;0.60;;
8909;SDS011;4490;49.072;8.804;2024-03-02T06:38:01;0.80;;;0.80;;
8909;SDS011;4490;49.072;8.804;2024-03-02T06:40:28;0.80;;;0.80;;
8909;SDS011;4490;49.072;8.804;2024-03-02T06:42:54;0.97;;;0.97;;
8909;SDS011;4490;49.072;8.804;2024-03-02T06:45:20;0.80;;;0.80;;
8909;SDS011;4490;49.072;8.804;2024-03-02T06:47:45;0.80;;;0.80;;
8909;SDS011;4490;49.072;8.804;2024-03-02T06:50:11;0.90;;;0.90;;
8909;SDS011;4490;49.072;8.804;2024-03-02T06:52:37;0.70;;;0.70;;
8909;SDS011;4490;49.072;8.804;2024-03-02T06:55:03;0.70;;;0.70;;
8909;SDS011;4490;49.072;8.804;2024-03-02T06:57:30;0.87;;;0.87;;
8909;SDS011;4490;49.072;8.804;2024-03-02T06:59:55;0.80;;;0.80;;
8909;SDS011;4490;49.072;8.804;2024-03-02T07:02:23;0.70;;;0.70;;
8909;SDS011;4490;49.072;8.804;2024-03-02T07:04:51;0.83;;;0.83;;
8909;SDS011;4490;49.072;8.804;2024-03-02T07:07:17;0.67;;;0.67;;
8909;SDS011;4490;49.072;8.804;2024-03-02T07:09:43;0.70;;;0.70;;
8909;SDS011;4490;49.072;8.804;2024-03-02T07:12:09;0.70;;;0.70;;
8909;SDS011;4490;49.072;8.804;2024-03-02T07:14:35;0.70;;;0.70;;
8909;SDS011;4490;49.072;8.804;2024-03-02T07:17:33;0.93;;;0.93;;
8909;SDS011;4490;49.072;8.804;2024-03-02T07:19:59;0.63;;;0.63;;
8909;SDS011;4490;49.072;8.804;2024-03-02T07:22:25;0.80;;;0.80;;
8909;SDS011;4490;49.072;8.804;2024-03-02T07:24:51;0.83;;;0.83;;
8909;SDS011;4490;49.072;8.804;2024-03-02T07:27:16;0.90;;;0.90;;
8909;SDS011;4490;49.072;8.804;2024-03-02T07:29:43;0.70;;;0.70;;
8909;SDS011;4490;49.072;8.804;2024-03-02T07:32:09;0.80;;;0.80;;
8909;SDS011;4490;49.072;8.804;2024-03-02T07:34:35;0.90;;;0.90;;
8909;SDS011;4490;49.072;8.804;2024-03-02T07:37:01;0.90;;;0.90;;
8909;SDS011;4490;49.072;8.804;2024-03-02T07:39:27;0.83;;;0.83;;
8909;SDS011;4490;49.072;8.804;2024-03-02T07:41:52;0.60;;;0.60;;
8909;SDS011;4490;49.072;8.804;2024-03-02T07:44:18;0.90;;;0.90;;
8909;SDS011;4490;49.072;8.804;2024-03-02T07:46:45;0.70;;;0.70;;
8909;SDS011;4490;49.072;8.804;2024-03-02T07:49:20;0.70;;;0.70;;
8909;SDS011;4490;49.072;8.804;2024-03-02T07:51:45;0.70;;;0.70;;
8909;SDS011;4490;49.072;8.804;2024-03-02T07:54:11;0.80;;;0.80;;
8909;SDS011;4490;49.072;8.804;2024-03-02T07:56:37;0.70;;;0.70;;
8909;SDS011;4490;49.072;8.804;2024-03-02T07:59:03;0.70;;;0.70;;
8909;SDS011;4490;49.072;8.804;2024-03-02T08:01:29;0.90;;;0.90;;
8909;SDS011;4490;49.072;8.804;2024-03-02T08:03:59;0.80;;;0.80;;
8909;SDS011;4490;49.072;8.804;2024-03-02T08:06:26;0.83;;;0.83;;
8909;SDS011;4490;49.072;8.804;2024-03-02T08:08:55;0.80;;;0.80;;
8909;SDS011;4490;49.072;8.804;2024-03-02T08:11:22;0.80;;;0.80;;
8909;SDS011;4490;49.072;8.804;2024-03-02T08:13:47;0.70;;;0.70;;
8909;SDS011;4490;49.072;8.804;2024-03-02T08:16:16;0.83;;;0.83;;
8909;SDS011;4490;49.072;8.804;2024-03-02T08:18:46;0.77;;;0.77;;
8909;SDS011;4490;49.072;8.804;2024-03-02T08:21:15;0.80;;;0.80;;
8909;SDS011;4490;49.072;8.804;2024-03-02T08:23:42;0.70;;;0.70;;
8909;SDS011;4490;49.072;8.804;2024-03-02T08:26:08;0.67;;;0.67;;
8909;SDS011;4490;49.072;8.804;2024-03-02T08:28:34;0.70;;;0.70;;
8909;SDS011;4490;49.072;8.804;2024-03-02T08:31:02;0.70;;;0.70;;
8909;SDS011;4490;49.072;8.804;2024-03-02T08:33:31;0.60;;;0.60;;
8909;SDS011;4490;49.072;8.804;2024-03-02T08:35:56;0.60;;;0.60;;
8909;SDS011;4490;49.072;8.804;2024-03-02T08:38:22;0.70;;;0.70;;
8909;SDS011;4490;49.072;8.804;2024-03-02T08:40:48;0.67;;;0.67;;
8909;SDS011;4490;49.072;8.804;2024-03-02T08:43:14;0.60;;;0.60;;
8909;SDS011;4490;49.072;8.804;2024-03-02T08:45:40;0.60;;;0.60;;
8909;SDS011;4490;49.072;8.804;2024-03-02T08:48:09;0.60;;;0.60;;
8909;SDS011;4490;49.072;8.804;2024-03-02T08:50:35;0.90;;;0.90;;
8909;SDS011;4490;49.072;8.804;2024-03-02T08:53:01;0.63;;;0.63;;
8909;SDS011;4490;49.072;8.804;2024-03-02T08:55:27;0.70;;;0.70;;
8909;SDS011;4490;49.072;8.804;2024-03-02T08:57:53;0.68;;;0.68;;
8909;SDS011;4490;49.072;8.804;2024-03-02T09:00:19;0.50;;;0.50;;
8909;SDS011;4490;49.072;8.804;2024-03-02T09:02:45;0.70;;;0.70;;
8909;SDS011;4490;49.072;8.804;2024-03-02T09:05:10;0.60;;;0.60;;
8909;SDS011;4490;49.072;8.804;2024-03-02T09:07:36;0.50;;;0.50;;
8909;SDS011;4490;49.072;8.804;2024-03-02T09:10:03;0.50;;;0.50;;
8909;SDS011;4490;49.072;8.804;2024-03-02T09:12:30;0.70;;;0.70;;
8909;SDS011;4490;49.072;8.804;2024-03-02T09:14:55;0.70;;;0.70;;
8909;SDS011;4490;49.072;8.804;2024-03-02T09:17:22;0.60;;;0.60;;
8909;SDS011;4490;49.072;8.804;2024-03-02T09:19:48;0.77;;;0.77;;
8909;SDS011;4490;49.072;8.804;2024-03-02T09:22:13;0.87;;;0.87;;
8909;SDS011;4490;49.072;8.804;2024-03-02T09:24:39;0.70;;;0.70;;
8909;SDS011;4490;49.072;8.804;2024-03-02T09:27:04;0.70;;;0.70;;
8909;SDS011;4490;49.072;8.804;2024-03-02T09:29:30;0.70;;;0.70;;
8909;SDS011;4490;49.072;8.804;2024-03-02T09:31:56;0.70;;;0.70;;
8909;SDS011;4490;49.072;8.804;2024-03-02T09:34:22;0.70;;;0.70;;
8909;SDS011;4490;49.072;8.804;2024-03-02T09:36:47;0.70;;;0.70;;
8909;SDS011;4490;49.072;8.804;2024-03-02T09:39:13;0.60;;;0.60;;
8909;SDS011;4490;49.072;8.804;2024-03-02T09:41:39;0.80;;;0.80;;
8909;SDS011;4490;49.072;8.804;2024-03-02T09:44:05;0.70;;;0.70;;
8909;SDS011;4490;49.072;8.804;2024-03-02T09:46:31;0.80;;;0.80;;
8909;SDS011;4490;49.072;8.804;2024-03-02T09:48:57;0.80;;;0.80;;
8909;SDS011;4490;49.072;8.804;2024-03-02T09:51:22;0.80;;;0.80;;
8909;SDS011;4490;49.072;8.804;2024-03-02T09:53:48;0.60;;;0.60;;
8909;SDS011;4490;49.072;8.804;2024-03-02T09:56:14;0.70;;;0.70;;
8909;SDS011;4490;49.072;8.804;2024-03-02T09:58:44;0.70;;;0.70;;
8909;SDS011;4490;49.072;8.804;2024-03-02T10:01:09;0.70;;;0.70;;
8909;SDS011;4490;49.072;8.804;2024-03-02T10:03:36;0.70;;;0.70;;
8909;SDS011;4490;49.072;8.804;2024-03-02T10:08:46;0.80;;;0.80;;
8909;SDS011;4490;49.072;8.804;2024-03-02T10:11:33;0.60;;;0.60;;
8909;SDS011;4490;49.072;8.804;2024-03-02T10:16:34;0.60;;;0.60;;
8909;SDS011;4490;49.072;8.804;2024-03-02T10:19:14;0.70;;;0.70;;
8909;SDS011;4490;49.072;8.804;2024-03-02T10:21:42;0.77;;;0.77;;
8909;SDS011;4490;49.072;8.804;2024-03-02T10:24:08;0.70;;;0.70;;
8909;SDS011;4490;49.072;8.804;2024-03-02T10:26:34;0.70;;;0.70;;
8909;SDS011;4490;49.072;8.804;2024-03-02T10:28:59;0.70;;;0.70;;
8909;SDS011;4490;49.072;8.804;2024-03-02T10:31:25;0.70;;;0.70;;
8909;SDS011;4490;49.072;8.804;2024-03-02T10:33:54;0.60;;;0.60;;
8909;SDS011;4490;49.072;8.804;2024-03-02T10:36:20;0.70;;;0.70;;
8909;SDS011;4490;49.072;8.804;2024-03-02T10:38:46;0.70;;;0.70;;
8909;SDS011;4490;49.072;8.804;2024-03-02T10:41:23;0.87;;;0.87;;
8909;SDS011;4490;49.072;8.804;2024-03-02T10:43:51;0.70;;;0.70;;
8909;SDS011;4490;49.072;8.804;2024-03-02T10:46:24;0.67;;;0.67;;
8909;SDS011;4490;49.072;8.804;2024-03-02T10:48:56;0.70;;;0.70;;
8909;SDS011;4490;49.072;8.804;2024-03-02T10:51:27;0.63;;;0.63;;
8909;SDS011;4490;49.072;8.804;2024-03-02T10:53:56;0.50;;;0.50;;
8909;SDS011;4490;49.072;8.804;2024-03-02T10:56:30;0.60;;;0.60;;
8909;SDS011;4490;49.072;8.804;2024-03-02T11:01:38;0.60;;;0.60;;
8909;SDS011;4490;49.072;8.804;2024-03-02T11:04:04;0.60;;;0.60;;
8909;SDS011;4490;49.072;8.804;2024-03-02T11:06:33;0.60;;;0.60;;
8909;SDS011;4490;49.072;8.804;2024-03-02T11:09:05;0.70;;;0.70;;
8909;SDS011;4490;49.072;8.804;2024-03-02T11:11:34;0.80;;;0.80;;
8909;SDS011;4490;49.072;8.804;2024-03-02T11:14:05;0.60;;;0.60;;
8909;SDS011;4490;49.072;8.804;2024-03-02T11:16:36;0.60;;;0.60;;
8909;SDS011;4490;49.072;8.804;2024-03-02T11:19:13;0.50;;;0.50;;
8909;SDS011;4490;49.072;8.804;2024-03-02T11:21:40;0.70;;;0.70;;
8909;SDS011;4490;49.072;8.804;2024-03-02T11:26:48;0.70;;;0.70;;
8909;SDS011;4490;49.072;8.804;2024-03-02T11:32:01;0.60;;;0.60;;
8909;SDS011;4490;49.072;8.804;2024-03-02T11:34:31;0.70;;;0.70;;
8909;SDS011;4490;49.072;8.804;2024-03-02T11:36:58;0.75;;;0.75;;
8909;SDS011;4490;49.072;8.804;2024-03-02T11:39:27;0.60;;;0.60;;
8909;SDS011;4490;49.072;8.804;2024-03-02T11:41:54;0.65;;;0.65;;
8909;SDS011;4490;49.072;8.804;2024-03-02T11:44:24;0.50;;;0.50;;
8909;SDS011;4490;49.072;8.804;2024-03-02T11:46:59;0.50;;;0.50;;
8909;SDS011;4490;49.072;8.804;2024-03-02T11:52:10;0.60;;;0.60;;
8909;SDS011;4490;49.072;8.804;2024-03-02T11:54:38;0.50;;;0.50;;
8909;SDS011;4490;49.072;8.804;2024-03-02T11:57:05;0.70;;;0.70;;
8909;SDS011;4490;49.072;8.804;2024-03-02T11:59:32;0.55;;;0.55;;
8909;SDS011;4490;49.072;8.804;2024-03-02T12:01:58;0.55;;;0.55;;
8909;SDS011;4490;49.072;8.804;2024-03-02T12:04:24;0.50;;;0.50;;
8909;SDS011;4490;49.072;8.804;2024-03-02T12:06:54;0.47;;;0.47;;
8909;SDS011;4490;49.072;8.804;2024-03-02T12:09:25;0.47;;;0.47;;
8909;SDS011;4490;49.072;8.804;2024-03-02T12:12:04;0.50;;;0.50;;
8909;SDS011;4490;49.072;8.804;2024-03-02T12:14:34;0.60;;;0.60;;
8909;SDS011;4490;49.072;8.804;2024-03-02T12:17:01;0.50;;;0.50;;
8909;SDS011;4490;49.072;8.804;2024-03-02T12:19:28;0.60;;;0.60;;
8909;SDS011;4490;49.072;8.804;2024-03-02T12:21:55;0.60;;;0.60;;
8909;SDS011;4490;49.072;8.804;2024-03-02T12:24:21;0.60;;;0.60;;
8909;SDS011;4490;49.072;8.804;2024-03-02T12:26:51;0.45;;;0.45;;
8909;SDS011;4490;49.072;8.804;2024-03-02T12:29:18;0.60;;;0.60;;
8909;SDS011;4490;49.072;8.804;2024-03-02T12:31:44;0.50;;;0.50;;
8909;SDS011;4490;49.072;8.804;2024-03-02T12:34:12;0.47;;;0.47;;
8909;SDS011;4490;49.072;8.804;2024-03-02T12:36:39;0.50;;;0.50;;
8909;SDS011;4490;49.072;8.804;2024-03-02T12:39:06;0.40;;;0.40;;
8909;SDS011;4490;49.072;8.804;2024-03-02T12:41:37;0.55;;;0.55;;
8909;SDS011;4490;49.072;8.804;2024-03-02T12:44:04;0.57;;;0.57;;
8909;SDS011;4490;49.072;8.804;2024-03-02T12:46:31;0.50;;;0.50;;
8909;SDS011;4490;49.072;8.804;2024-03-02T12:48:57;0.50;;;0.50;;
8909;SDS011;4490;49.072;8.804;2024-03-02T12:51:32;0.50;;;0.50;;
8909;SDS011;4490;49.072;8.804;2024-03-02T12:53:57;0.50;;;0.50;;
8909;SDS011;4490;49.072;8.804;2024-03-02T12:56:26;0.50;;;0.50;;
8909;SDS011;4490;49.072;8.804;2024-03-02T12:58:53;0.50;;;0.50;;
8909;SDS011;4490;49.072;8.804;2024-03-02T13:01:22;0.52;;;0.52;;
8909;SDS011;4490;49.072;8.804;2024-03-02T13:03:49;0.50;;;0.50;;
8909;SDS011;4490;49.072;8.804;2024-03-02T13:06:18;0.43;;;0.43;;
8909;SDS011;4490;49.072;8.804;2024-03-02T13:08:44;0.50;;;0.50;;
8909;SDS011;4490;49.072;8.804;2024-03-02T13:11:11;0.40;;;0.40;;
8909;SDS011;4490;49.072;8.804;2024-03-02T13:13:38;0.40;;;0.40;;
8909;SDS011;4490;49.072;8.804;2024-03-02T13:16:07;0.40;;;0.40;;
8909;SDS011;4490;49.072;8.804;2024-03-02T13:18:40;0.50;;;0.50;;
8909;SDS011;4490;49.072;8.804;2024-03-02T13:21:06;0.60;;;0.60;;
8909;SDS011;4490;49.072;8.804;2024-03-02T13:23:32;0.50;;;0.50;;
8909;SDS011;4490;49.072;8.804;2024-03-02T13:25:58;0.68;;;0.68;;
8909;SDS011;4490;49.072;8.804;2024-03-02T13:28:24;0.50;;;0.50;;
8909;SDS011;4490;49.072;8.804;2024-03-02T13:30:50;0.50;;;0.50;;
8909;SDS011;4490;49.072;8.804;2024-03-02T13:33:16;0.40;;;0.40;;
8909;SDS011;4490;49.072;8.804;2024-03-02T13:35:47;0.52;;;0.52;;
8909;SDS011;4490;49.072;8.804;2024-03-02T13:38:16;0.50;;;0.50;;
8909;SDS011;4490;49.072;8.804;2024-03-02T13:40:43;0.50;;;0.50;;
8909;SDS011;4490;49.072;8.804;2024-03-02T13:43:08;0.50;;;0.50;;
8909;SDS011;4490;49.072;8.804;2024-03-02T13:45:34;0.55;;;0.55;;
8909;SDS011;4490;49.072;8.804;2024-03-02T13:48:01;0.40;;;0.40;;
8909;SDS011;4490;49.072;8.804;2024-03-02T13:50:28;0.40;;;0.40;;
8909;SDS011;4490;49.072;8.804;2024-03-02T13:52:55;0.50;;;0.50;;
8909;SDS011;4490;49.072;8.804;2024-03-02T13:55:21;0.35;;;0.35;;
8909;SDS011;4490;49.072;8.804;2024-03-02T13:57:47;0.47;;;0.47;;
8909;SDS011;4490;49.072;8.804;2024-03-02T14:00:15;0.40;;;0.40;;
8909;SDS011;4490;49.072;8.804;2024-03-02T14:02:42;0.50;;;0.50;;
8909;SDS011;4490;49.072;8.804;2024-03-02T14:05:08;0.45;;;0.45;;
8909;SDS011;4490;49.072;8.804;2024-03-02T14:07:40;0.50;;;0.50;;
8909;SDS011;4490;49.072;8.804;2024-03-02T14:10:06;0.50;;;0.50;;
8909;SDS011;4490;49.072;8.804;2024-03-02T14:12:33;0.40;;;0.40;;
8909;SDS011;4490;49.072;8.804;2024-03-02T14:14:58;0.40;;;0.40;;
8909;SDS011;4490;49.072;8.804;2024-03-02T14:17:26;0.60;;;0.60;;
8909;SDS011;4490;49.072;8.804;2024-03-02T14:19:51;0.70;;;0.70;;
8909;SDS011;4490;49.072;8.804;2024-03-02T14:22:18;0.47;;;0.47;;
8909;SDS011;4490;49.072;8.804;2024-03-02T14:24:44;0.60;;;0.60;;
8909;SDS011;4490;49.072;8.804;2024-03-02T14:27:11;0.40;;;0.40;;
8909;SDS011;4490;49.072;8.804;2024-03-02T14:29:38;0.30;;;0.30;;
8909;SDS011;4490;49.072;8.804;2024-03-02T14:32:05;0.50;;;0.50;;
8909;SDS011;4490;49.072;8.804;2024-03-02T14:34:31;0.50;;;0.50;;
8909;SDS011;4490;49.072;8.804;2024-03-02T14:36:56;0.50;;;0.50;;
8909;SDS011;4490;49.072;8.804;2024-03-02T14:39:22;0.50;;;0.50;;
8909;SDS011;4490;49.072;8.804;2024-03-02T14:41:48;0.50;;;0.50;;
8909;SDS011;4490;49.072;8.804;2024-03-02T14:44:13;0.50;;;0.50;;
8909;SDS011;4490;49.072;8.804;2024-03-02T14:46:40;0.40;;;0.40;;
8909;SDS011;4490;49.072;8.804;2024-03-02T14:49:06;0.40;;;0.40;;
8909;SDS011;4490;49.072;8.804;2024-03-02T14:51:32;0.50;;;0.50;;
8909;SDS011;4490;49.072;8.804;2024-03-02T14:53:58;0.50;;;0.50;;
8909;SDS011;4490;49.072;8.804;2024-03-02T14:56:23;0.50;;;0.50;;
8909;SDS011;4490;49.072;8.804;2024-03-02T14:58:49;0.40;;;0.40;;
8909;SDS011;4490;49.072;8.804;2024-03-02T15:01:16;0.40;;;0.40;;
8909;SDS011;4490;49.072;8.804;2024-03-02T15:03:42;0.40;;;0.40;;
8909;SDS011;4490;49.072;8.804;2024-03-02T15:06:08;0.47;;;0.47;;
8909;SDS011;4490;49.072;8.804;2024-03-02T15:08:34;0.40;;;0.40;;
8909;SDS011;4490;49.072;8.804;2024-03-02T15:11:00;0.40;;;0.40;;
8909;SDS011;4490;49.072;8.804;2024-03-02T15:13:27;0.50;;;0.50;;
8909;SDS011;4490;49.072;8.804;2024-03-02T15:15:52;0.43;;;0.43;;
8909;SDS011;4490;49.072;8.804;2024-03-02T15:18:18;0.50;;;0.50;;
8909;SDS011;4490;49.072;8.804;2024-03-02T15:20:44;0.40;;;0.40;;
8909;SDS011;4490;49.072;8.804;2024-03-02T15:23:10;0.50;;;0.50;;
8909;SDS011;4490;49.072;8.804;2024-03-02T15:25:35;0.63;;;0.63;;
8909;SDS011;4490;49.072;8.804;2024-03-02T15:28:02;0.50;;;0.50;;
8909;SDS011;4490;49.072;8.804;2024-03-02T15:30:28;0.50;;;0.50;;
8909;SDS011;4490;49.072;8.804;2024-03-02T15:32:53;0.40;;;0.40;;
8909;SDS011;4490;49.072;8.804;2024-03-02T15:35:19;0.40;;;0.40;;